Terminal Aerodrome Forecast
Issued by NWS

Home | Current Version | Previous Version | Text Only | Print | Product List | Glossary On
Versions: 1 2 3 4 5 6 7 8 9 10 11 12 13 14 15 16 17 18 19 20 21
289
FTUS43 KICT 300331 AAB
TAFRSL
TAF AMD
KRSL 300331Z 3004/3024 03017G24KT 4SM BR VCSH SCT004 OVC015
      TEMPO 3004/3007 BKN004
     FM300700 32013KT 3SM BR OVC009
     FM301500 29016KT P6SM SCT040=

USA.gov is the U.S. government's official web portal to all federal, state and local government web resources and services.